createdAt,value
2019-02-25T00:00:17.057Z,3.47
2019-02-25T00:02:59.453Z,3.00
2019-02-25T00:05:41.552Z,3.07
2019-02-25T00:08:23.429Z,3.13
2019-02-25T00:11:05.342Z,3.20
2019-02-25T00:13:47.172Z,2.80
2019-02-25T00:16:28.730Z,3.57
2019-02-25T00:19:10.991Z,3.00
2019-02-25T00:21:52.886Z,3.00
2019-02-25T00:24:34.826Z,3.23
2019-02-25T00:27:16.623Z,3.37
2019-02-25T00:29:58.294Z,4.07
2019-02-25T00:32:39.961Z,3.57
2019-02-25T00:35:22.065Z,2.93
2019-02-25T00:38:04.190Z,3.33
2019-02-25T00:40:46.509Z,3.00
2019-02-25T00:43:28.774Z,3.47
2019-02-25T00:46:11.253Z,3.20
2019-02-25T00:48:53.259Z,3.33
2019-02-25T00:51:35.073Z,3.53
2019-02-25T00:54:16.998Z,3.33
2019-02-25T00:56:59.062Z,3.37
2019-02-25T01:06:13.168Z,3.50
2019-02-25T01:08:55.193Z,3.50
2019-02-25T01:11:37.279Z,3.20
2019-02-25T01:14:19.136Z,3.37
2019-02-25T01:17:02.888Z,3.50
2019-02-25T01:19:44.721Z,3.73
2019-02-25T01:22:27.205Z,3.50
2019-02-25T01:25:09.619Z,3.90
2019-02-25T01:27:51.736Z,3.27
2019-02-25T01:34:06.473Z,3.40
2019-02-25T01:36:48.022Z,3.47
2019-02-25T01:39:29.640Z,3.47
2019-02-25T01:42:11.956Z,3.63
2019-02-25T01:44:54.373Z,3.83
2019-02-25T01:47:36.081Z,3.20
2019-02-25T01:50:17.781Z,3.67
2019-02-25T01:55:59.605Z,3.77
2019-02-25T01:58:41.992Z,3.83
2019-02-25T02:01:23.541Z,3.50
2019-02-25T02:04:05.033Z,3.57
2019-02-25T02:06:47.186Z,3.03
2019-02-25T02:09:29.219Z,3.70
2019-02-25T02:12:10.744Z,3.83
2019-02-25T02:14:52.849Z,3.67
2019-02-25T02:17:35.105Z,4.07
2019-02-25T02:20:17.462Z,3.63
2019-02-25T02:22:59.006Z,3.43
2019-02-25T02:25:41.148Z,2.90
2019-02-25T02:28:23.417Z,3.20
2019-02-25T02:31:05.033Z,3.27
2019-02-25T02:33:47.369Z,3.17
2019-02-25T02:36:29.002Z,3.17
2019-02-25T02:39:10.990Z,3.17
2019-02-25T02:41:53.170Z,3.37
2019-02-25T02:47:34.606Z,4.00
2019-02-25T02:50:16.626Z,3.93
2019-02-25T02:52:58.628Z,3.90
2019-02-25T02:55:40.545Z,3.70
2019-02-25T02:58:22.384Z,3.57
2019-02-25T03:01:04.602Z,3.17
2019-02-25T03:03:34.969Z,3.37
2019-02-25T03:06:24.266Z,3.73
2019-02-25T03:09:13.624Z,3.50
2019-02-25T03:12:02.949Z,3.47
2019-02-25T03:14:52.218Z,3.40
2019-02-25T03:17:41.461Z,3.20
2019-02-25T03:20:30.740Z,3.73
2019-02-25T03:23:20.077Z,3.60
2019-02-25T03:26:01.763Z,3.37
2019-02-25T03:28:44.062Z,3.37
2019-02-25T03:31:25.807Z,3.40
2019-02-25T03:34:07.943Z,3.63
2019-02-25T03:36:50.247Z,3.50
2019-02-25T03:39:32.525Z,3.90
2019-02-25T03:42:14.858Z,3.77
2019-02-25T03:44:56.966Z,3.60
2019-02-25T03:47:38.742Z,3.97
2019-02-25T03:50:20.772Z,4.23
2019-02-25T03:56:01.842Z,3.60
2019-02-25T03:58:43.357Z,4.20
2019-02-25T04:01:25.618Z,3.80
2019-02-25T04:04:07.467Z,4.10
2019-02-25T04:06:49.433Z,3.53
2019-02-25T04:09:31.394Z,3.53
2019-02-25T04:12:13.584Z,3.00
2019-02-25T04:14:55.737Z,3.13
2019-02-25T04:17:37.258Z,3.10
2019-02-25T04:20:19.252Z,2.80
2019-02-25T04:23:00.857Z,3.07
2019-02-25T04:25:43.293Z,3.27
2019-02-25T04:28:25.377Z,3.13
2019-02-25T04:31:07.683Z,3.20
2019-02-25T04:33:49.439Z,3.30
2019-02-25T04:36:31.278Z,3.40
2019-02-25T04:39:01.557Z,3.20
2019-02-25T04:41:50.930Z,3.30
2019-02-25T04:44:40.276Z,2.97
2019-02-25T04:47:29.637Z,3.43
2019-02-25T04:50:18.996Z,4.27
2019-02-25T04:53:08.353Z,3.50
2019-02-25T04:55:57.718Z,3.30
2019-02-25T04:58:47.068Z,3.50
2019-02-25T05:01:36.425Z,2.83
2019-02-25T05:04:25.710Z,3.63
2019-02-25T05:07:15.049Z,6.53
2019-02-25T05:10:04.757Z,4.30
2019-02-25T05:13:13.204Z,3.50
2019-02-25T05:16:02.572Z,3.40
2019-02-25T05:18:51.963Z,4.30
2019-02-25T05:21:41.310Z,3.67
2019-02-25T05:24:30.753Z,3.57
2019-02-25T05:27:12.990Z,3.57
2019-02-25T05:29:55.039Z,3.57
2019-02-25T05:32:36.652Z,4.10
2019-02-25T05:35:18.950Z,3.73
2019-02-25T05:37:49.176Z,4.30
2019-02-25T05:40:19.501Z,4.20
2019-02-25T05:43:08.805Z,4.03
2019-02-25T05:45:39.021Z,4.03
2019-02-25T05:48:28.381Z,4.20
2019-02-25T05:51:17.729Z,3.40
2019-02-25T05:54:07.071Z,3.43
2019-02-25T05:56:56.367Z,3.43
2019-02-25T05:59:45.734Z,4.33
2019-02-25T06:02:35.183Z,3.97
2019-02-25T06:05:24.574Z,4.77
2019-02-25T06:08:13.950Z,4.87
2019-02-25T06:11:03.250Z,4.00
2019-02-25T06:13:52.592Z,4.00
2019-02-25T06:16:22.889Z,4.30
2019-02-25T06:19:12.283Z,4.93
2019-02-25T06:22:01.629Z,5.53
2019-02-25T06:24:51.027Z,4.60
2019-02-25T06:27:33.471Z,5.80
2019-02-25T06:30:15.124Z,4.50
2019-02-25T06:32:57.413Z,4.70
2019-02-25T06:35:39.282Z,4.90
2019-02-25T06:38:21.149Z,5.10
2019-02-25T06:41:03.117Z,4.60
2019-02-25T06:43:45.040Z,4.80
2019-02-25T06:46:27.161Z,4.67
2019-02-25T06:49:09.046Z,4.97
2019-02-25T06:51:50.629Z,5.17
2019-02-25T06:54:32.608Z,4.87
2019-02-25T06:57:14.432Z,4.70
2019-02-25T06:59:56.202Z,4.93
2019-02-25T07:02:38.396Z,4.57
2019-02-25T07:05:39.454Z,7.20
2019-02-25T07:08:35.069Z,5.00
2019-02-25T07:11:36.229Z,4.57
2019-02-25T07:14:37.357Z,5.10
2019-02-25T07:17:38.537Z,5.03
2019-02-25T07:20:39.334Z,5.00
2019-02-25T07:23:45.899Z,5.03
2019-02-25T07:26:46.766Z,5.10
2019-02-25T07:29:36.013Z,5.43
2019-02-25T07:32:44.352Z,5.87
2019-02-25T07:35:52.646Z,9.70
2019-02-25T07:39:00.932Z,8.07
2019-02-25T07:42:09.200Z,8.17
2019-02-25T07:45:17.496Z,5.93
2019-02-25T07:48:25.783Z,6.17
2019-02-25T07:51:34.090Z,6.30
2019-02-25T07:54:42.376Z,7.23
2019-02-25T07:58:09.705Z,7.53
2019-02-25T08:01:04.793Z,6.57
2019-02-25T08:03:54.713Z,8.50
2019-02-25T08:07:03.338Z,6.27
2019-02-25T08:10:11.654Z,6.00
2019-02-25T08:13:07.435Z,6.03
2019-02-25T08:16:15.789Z,5.67
2019-02-25T08:19:24.079Z,6.07
2019-02-25T08:22:32.333Z,6.10
2019-02-25T08:25:40.588Z,6.13
2019-02-25T08:28:34.549Z,7.83
2019-02-25T08:31:27.808Z,6.40
2019-02-25T08:34:25.953Z,5.10
2019-02-25T08:37:26.847Z,5.60
2019-02-25T08:40:27.714Z,5.23
2019-02-25T08:43:09.564Z,8.90
2019-02-25T08:45:58.848Z,5.67
2019-02-25T08:48:49.255Z,4.60
2019-02-25T08:51:19.516Z,4.97
2019-02-25T08:54:08.896Z,5.00
2019-02-25T08:56:58.192Z,4.83
2019-02-25T08:59:47.651Z,4.70
2019-02-25T09:02:36.918Z,5.37
2019-02-25T09:05:26.297Z,5.20
2019-02-25T09:08:15.712Z,5.53
2019-02-25T09:11:13.753Z,7.43
2019-02-25T09:14:14.929Z,5.03
2019-02-25T09:17:04.200Z,4.53
2019-02-25T09:19:53.527Z,4.77
2019-02-25T09:22:42.870Z,5.27
2019-02-25T09:25:32.250Z,4.87
2019-02-25T09:28:14.516Z,4.67
2019-02-25T09:30:56.964Z,3.80
2019-02-25T09:33:39.025Z,4.23
2019-02-25T09:36:21.344Z,4.80
2019-02-25T09:42:36.534Z,5.00
2019-02-25T09:45:08.518Z,4.67
2019-02-25T09:47:57.946Z,4.90
2019-02-25T09:50:47.304Z,5.57
2019-02-25T09:53:36.719Z,4.67
2019-02-25T09:56:26.114Z,5.30
2019-02-25T09:59:15.628Z,4.93
2019-02-25T10:02:04.980Z,5.33
2019-02-25T10:04:54.371Z,5.30
2019-02-25T10:07:43.731Z,5.40
2019-02-25T10:10:33.097Z,5.47
2019-02-25T10:13:03.483Z,5.20
2019-02-25T10:15:52.813Z,5.80
2019-02-25T10:18:42.212Z,5.10
2019-02-25T10:21:12.634Z,4.27
2019-02-25T10:24:02.225Z,4.17
2019-02-25T10:26:32.447Z,4.57
2019-02-25T10:29:21.837Z,4.33
2019-02-25T10:32:11.208Z,3.87
2019-02-25T10:35:00.624Z,3.37
2019-02-25T10:37:49.979Z,3.90
2019-02-25T10:40:24.060Z,4.40
2019-02-25T10:43:31.877Z,4.07
2019-02-25T10:46:42.839Z,13.30
2019-02-25T10:49:51.795Z,11.27
2019-02-25T10:52:42.855Z,6.23
2019-02-25T10:55:36.237Z,4.13
2019-02-25T10:58:27.047Z,4.63
2019-02-25T11:01:37.548Z,7.97
2019-02-25T11:04:47.372Z,4.47
2019-02-25T11:07:57.211Z,4.90
2019-02-25T11:10:53.207Z,4.40
2019-02-25T11:14:03.106Z,6.47
2019-02-25T11:17:13.881Z,3.80
2019-02-25T11:20:23.562Z,3.20
2019-02-25T11:23:15.398Z,3.57
2019-02-25T11:26:24.303Z,3.57
2019-02-25T11:29:34.021Z,3.40
2019-02-25T11:32:30.985Z,3.50
2019-02-25T11:35:20.398Z,3.77
2019-02-25T11:38:09.777Z,7.20
2019-02-25T11:40:59.831Z,3.20
2019-02-25T11:44:10.836Z,2.63
2019-02-25T11:47:19.735Z,3.27
2019-02-25T11:50:10.371Z,3.70
2019-02-25T11:52:59.720Z,3.27
2019-02-25T11:55:49.142Z,2.97
2019-02-25T11:58:38.528Z,2.80
2019-02-25T12:01:27.834Z,2.63
2019-02-25T12:04:17.233Z,2.50
2019-02-25T12:07:06.706Z,2.83
2019-02-25T12:09:56.065Z,2.97
2019-02-25T12:12:45.550Z,2.40
2019-02-25T12:15:34.964Z,2.40
2019-02-25T12:18:24.319Z,2.80
2019-02-25T12:21:13.782Z,3.23
2019-02-25T12:24:03.141Z,2.30
2019-02-25T12:26:52.899Z,2.60
2019-02-25T12:29:42.311Z,2.80
2019-02-25T12:32:31.711Z,2.43
2019-02-25T12:35:21.060Z,2.40
2019-02-25T12:38:10.373Z,2.00
2019-02-25T12:40:40.553Z,2.00
2019-02-25T12:43:10.832Z,1.73
2019-02-25T12:46:00.201Z,1.67
2019-02-25T12:48:49.628Z,2.57
2019-02-25T12:51:19.932Z,1.90
2019-02-25T12:54:09.375Z,2.40
2019-02-25T12:56:58.729Z,2.30
2019-02-25T12:59:48.141Z,2.30
2019-02-25T13:02:37.450Z,3.27
2019-02-25T13:05:26.843Z,2.70
2019-02-25T13:07:57.254Z,2.77
2019-02-25T13:10:46.657Z,1.80
2019-02-25T13:13:16.970Z,1.83
2019-02-25T13:16:06.373Z,1.87
2019-02-25T13:18:36.690Z,1.90
2019-02-25T13:21:25.469Z,1.83
2019-02-25T13:24:14.789Z,1.97
2019-02-25T13:26:57.047Z,2.47
2019-02-25T13:29:39.265Z,2.00
2019-02-25T13:32:21.063Z,1.70
2019-02-25T13:34:51.705Z,2.90
2019-02-25T13:37:41.109Z,2.13
2019-02-25T13:40:30.550Z,2.73
2019-02-25T13:43:19.901Z,3.90
2019-02-25T13:46:08.765Z,7.47
2019-02-25T13:48:58.114Z,3.60
2019-02-25T13:51:47.546Z,3.63
2019-02-25T13:54:36.933Z,6.67
2019-02-25T13:57:26.380Z,6.03
2019-02-25T14:00:17.110Z,12.93
2019-02-25T14:03:06.549Z,2.53
2019-02-25T14:05:56.117Z,2.73
2019-02-25T14:09:08.122Z,1.90
2019-02-25T14:11:57.564Z,1.60
2019-02-25T14:14:47.019Z,1.43
2019-02-25T14:17:36.544Z,2.33
2019-02-25T14:20:25.953Z,1.73
2019-02-25T14:23:16.137Z,2.00
2019-02-25T14:26:25.879Z,1.30
2019-02-25T14:29:15.229Z,1.50
2019-02-25T14:32:04.592Z,1.93
2019-02-25T14:34:54.022Z,2.00
2019-02-25T14:37:43.432Z,1.60
2019-02-25T14:40:32.870Z,1.43
2019-02-25T14:43:23.188Z,1.57
2019-02-25T14:46:32.945Z,1.47
2019-02-25T14:49:22.347Z,1.40
2019-02-25T14:52:11.801Z,1.67
2019-02-25T14:55:02.241Z,1.10
2019-02-25T14:58:12.658Z,1.57
2019-02-25T15:01:23.298Z,1.30
2019-02-25T15:04:32.959Z,1.20
2019-02-25T15:07:24.004Z,1.30
2019-02-25T15:10:13.363Z,1.30
2019-02-25T15:13:04.095Z,1.30
2019-02-25T15:15:54.270Z,1.47
2019-02-25T15:18:43.770Z,1.67
2019-02-25T15:21:15.914Z,3.17
2019-02-25T15:24:24.603Z,1.90
2019-02-25T15:27:07.257Z,2.07
2019-02-25T15:29:39.790Z,1.87
2019-02-25T15:32:55.810Z,6.03
2019-02-25T15:36:01.267Z,2.40
2019-02-25T15:42:26.041Z,1.90
2019-02-25T15:45:38.316Z,1.60
2019-02-25T15:48:46.861Z,1.50
2019-02-25T15:51:18.441Z,1.67
2019-02-25T15:54:10.129Z,1.73
2019-02-25T15:57:20.637Z,1.80
2019-02-25T16:03:45.968Z,1.90
2019-02-25T16:06:37.240Z,2.10
2019-02-25T16:09:45.861Z,2.80
2019-02-25T16:12:36.088Z,2.13
2019-02-25T16:15:45.846Z,2.60
2019-02-25T16:18:35.292Z,1.60
2019-02-25T16:21:26.647Z,2.50
2019-02-25T16:24:35.180Z,2.60
2019-02-25T16:27:18.893Z,2.10
2019-02-25T16:30:02.954Z,2.47
2019-02-25T16:32:46.353Z,1.97
2019-02-25T16:35:29.058Z,3.00
2019-02-25T16:38:11.084Z,2.03
2019-02-25T16:40:56.620Z,2.00
2019-02-25T16:43:36.729Z,3.87
2019-02-25T16:46:20.228Z,1.67
2019-02-25T16:49:01.700Z,1.83
2019-02-25T16:51:35.220Z,1.67
2019-02-25T16:54:42.644Z,2.10
2019-02-25T16:57:31.965Z,2.00
2019-02-25T17:00:24.836Z,2.10
2019-02-25T17:03:31.875Z,2.50
2019-02-25T17:06:04.131Z,3.33
2019-02-25T17:09:34.141Z,2.40
2019-02-25T17:12:44.181Z,2.43
2019-02-25T17:15:54.406Z,1.80
2019-02-25T17:18:45.945Z,3.77
2019-02-25T17:21:54.258Z,2.70
2019-02-25T17:24:43.674Z,3.90
2019-02-25T17:27:25.354Z,2.97
2019-02-25T17:30:07.315Z,2.20
2019-02-25T17:32:38.358Z,2.33
2019-02-25T17:35:49.954Z,2.20
2019-02-25T17:38:58.770Z,2.17
2019-02-25T17:41:50.198Z,2.00
2019-02-25T17:44:39.573Z,1.80
2019-02-25T17:47:32.398Z,1.70
2019-02-25T17:50:41.562Z,1.70
2019-02-25T17:54:02.967Z,1.93
2019-02-25T17:57:05.436Z,2.10
2019-02-25T18:00:50.238Z,2.60
2019-02-25T18:03:27.257Z,1.90
2019-02-25T18:06:16.657Z,2.87
2019-02-25T18:09:26.768Z,2.33
2019-02-25T18:15:49.826Z,2.90
2019-02-25T18:18:58.485Z,2.83
2019-02-25T18:24:56.379Z,3.43
2019-02-25T18:27:41.072Z,4.00
2019-02-25T18:30:23.850Z,3.93
2019-02-25T18:33:06.254Z,3.57
2019-02-25T18:35:48.214Z,3.70
2019-02-25T18:38:31.732Z,3.43
2019-02-25T18:41:13.574Z,3.07
2019-02-25T18:43:55.311Z,4.23
2019-02-25T18:46:37.322Z,4.37
2019-02-25T18:49:21.332Z,4.00
2019-02-25T18:52:03.565Z,4.67
2019-02-25T18:54:47.294Z,4.23
2019-02-25T18:57:29.861Z,4.00
2019-02-25T19:00:13.503Z,4.73
2019-02-25T19:02:58.282Z,4.37
2019-02-25T19:05:43.591Z,3.53
2019-02-25T19:08:26.778Z,4.03
2019-02-25T19:11:11.474Z,4.70
2019-02-25T19:13:54.367Z,4.27
2019-02-25T19:16:38.039Z,4.67
2019-02-25T19:19:22.695Z,4.77
2019-02-25T19:22:05.976Z,4.80
2019-02-25T19:24:49.258Z,4.90
2019-02-25T19:27:33.793Z,4.57
2019-02-25T19:30:17.443Z,4.90
2019-02-25T19:33:10.580Z,4.93
2019-02-25T19:35:43.286Z,6.37
2019-02-25T19:38:25.486Z,6.33
2019-02-25T19:41:11.059Z,5.10
2019-02-25T19:43:59.257Z,5.27
2019-02-25T19:46:37.802Z,4.73
2019-02-25T19:49:22.762Z,5.03
2019-02-25T19:52:07.190Z,5.50
2019-02-25T19:54:52.028Z,5.33
2019-02-25T19:57:34.093Z,5.10
2019-02-25T20:00:17.829Z,5.43
2019-02-25T20:03:05.602Z,5.67
2019-02-25T20:05:46.010Z,5.57
2019-02-25T20:08:27.909Z,4.57
2019-02-25T20:11:12.459Z,4.43
2019-02-25T20:13:53.627Z,3.87
2019-02-25T20:16:35.337Z,4.77
2019-02-25T20:19:17.013Z,5.00
2019-02-25T20:21:58.930Z,4.00
2019-02-25T20:24:44.315Z,4.47
2019-02-25T20:27:24.763Z,4.50
2019-02-25T20:30:07.138Z,5.17
2019-02-25T20:32:49.052Z,5.23
2019-02-25T20:38:34.584Z,4.93
2019-02-25T20:41:18.328Z,5.00
2019-02-25T20:43:53.226Z,5.07
2019-02-25T20:47:00.151Z,5.07
2019-02-25T20:53:10.954Z,4.65
2019-02-25T20:56:22.464Z,3.77
2019-02-25T20:59:34.509Z,3.90
2019-02-25T21:03:03.822Z,4.40
2019-02-25T21:05:53.349Z,4.90
2019-02-25T21:09:02.546Z,4.10
2019-02-25T21:12:15.063Z,4.33
2019-02-25T21:15:23.456Z,4.43
2019-02-25T21:18:12.914Z,4.40
2019-02-25T21:21:02.262Z,4.23
2019-02-25T21:27:26.156Z,4.37
2019-02-25T21:30:31.984Z,4.20
2019-02-25T21:33:23.726Z,5.20
2019-02-25T21:39:49.157Z,5.10
2019-02-25T21:43:01.153Z,4.10
2019-02-25T21:45:52.235Z,3.80
2019-02-25T21:48:42.233Z,3.73
2019-02-25T21:51:52.066Z,3.87
2019-02-25T21:54:41.494Z,3.90
2019-02-25T21:58:20.262Z,4.10
2019-02-25T22:00:41.890Z,5.20
2019-02-25T22:03:31.295Z,4.60
2019-02-25T22:06:22.627Z,4.47
2019-02-25T22:09:51.711Z,4.67
2019-02-25T22:12:42.640Z,4.40
2019-02-25T22:15:51.872Z,4.83
2019-02-25T22:18:22.258Z,4.60
2019-02-25T22:27:23.019Z,4.40
2019-02-25T22:30:34.342Z,4.30
2019-02-25T22:33:27.675Z,4.90
2019-02-25T22:36:39.409Z,5.27
2019-02-25T22:43:01.966Z,4.17
2019-02-25T22:45:56.194Z,4.30
2019-02-25T22:49:05.074Z,3.83
2019-02-25T22:52:14.535Z,4.73
2019-02-25T22:55:05.996Z,4.40
2019-02-25T22:58:15.012Z,4.23
2019-02-25T23:01:25.099Z,3.90
2019-02-25T23:04:15.556Z,3.97
2019-02-25T23:10:38.056Z,4.30
2019-02-25T23:13:45.731Z,4.50
2019-02-25T23:16:55.286Z,5.07
2019-02-25T23:19:57.950Z,4.57
2019-02-25T23:22:57.206Z,4.70
2019-02-25T23:26:05.776Z,5.90
2019-02-25T23:31:31.088Z,4.97
2019-02-25T23:34:15.348Z,5.47
2019-02-25T23:36:57.252Z,5.50
2019-02-25T23:39:40.529Z,5.73
2019-02-25T23:42:23.092Z,4.07
2019-02-25T23:45:04.563Z,4.20
2019-02-25T23:47:46.746Z,3.83
2019-02-25T23:50:29.690Z,4.37
2019-02-25T23:53:12.691Z,3.93
2019-02-25T23:55:56.511Z,4.10
2019-02-25T23:58:42.113Z,4.70
